sensor_id;sensor_type;location;lat;lon;timestamp;P1;durP1;ratioP1;P2;durP2;ratioP2
6505;SDS011;3286;49.858;8.768;2022-08-19T00:01:17;15.70;;;11.57;;
6505;SDS011;3286;49.858;8.768;2022-08-19T00:03:43;16.70;;;12.30;;
6505;SDS011;3286;49.858;8.768;2022-08-19T00:06:10;14.93;;;12.45;;
6505;SDS011;3286;49.858;8.768;2022-08-19T00:08:38;14.02;;;11.27;;
6505;SDS011;3286;49.858;8.768;2022-08-19T00:11:05;15.57;;;12.05;;
6505;SDS011;3286;49.858;8.768;2022-08-19T00:13:32;16.17;;;12.07;;
6505;SDS011;3286;49.858;8.768;2022-08-19T00:15:59;13.88;;;11.60;;
6505;SDS011;3286;49.858;8.768;2022-08-19T00:18:26;16.88;;;12.48;;
6505;SDS011;3286;49.858;8.768;2022-08-19T00:20:53;14.43;;;12.00;;
6505;SDS011;3286;49.858;8.768;2022-08-19T00:23:20;16.25;;;12.35;;
6505;SDS011;3286;49.858;8.768;2022-08-19T00:25:48;14.93;;;11.95;;
6505;SDS011;3286;49.858;8.768;2022-08-19T00:28:15;15.32;;;12.27;;
6505;SDS011;3286;49.858;8.768;2022-08-19T00:30:42;15.45;;;12.52;;
6505;SDS011;3286;49.858;8.768;2022-08-19T00:33:09;15.82;;;11.85;;
6505;SDS011;3286;49.858;8.768;2022-08-19T00:35:36;15.48;;;11.50;;
6505;SDS011;3286;49.858;8.768;2022-08-19T00:38:03;14.73;;;11.80;;
6505;SDS011;3286;49.858;8.768;2022-08-19T00:40:31;14.13;;;11.82;;
6505;SDS011;3286;49.858;8.768;2022-08-19T00:42:59;14.40;;;12.07;;
6505;SDS011;3286;49.858;8.768;2022-08-19T00:45:26;17.77;;;11.80;;
6505;SDS011;3286;49.858;8.768;2022-08-19T00:47:55;17.33;;;11.43;;
6505;SDS011;3286;49.858;8.768;2022-08-19T00:50:22;13.38;;;11.38;;
6505;SDS011;3286;49.858;8.768;2022-08-19T00:52:49;12.57;;;10.52;;
6505;SDS011;3286;49.858;8.768;2022-08-19T00:55:18;17.33;;;10.95;;
6505;SDS011;3286;49.858;8.768;2022-08-19T00:57:48;13.35;;;11.10;;
6505;SDS011;3286;49.858;8.768;2022-08-19T01:00:21;14.80;;;11.60;;
6505;SDS011;3286;49.858;8.768;2022-08-19T01:02:49;15.63;;;11.15;;
6505;SDS011;3286;49.858;8.768;2022-08-19T01:05:16;12.45;;;10.60;;
6505;SDS011;3286;49.858;8.768;2022-08-19T01:07:47;13.63;;;11.38;;
6505;SDS011;3286;49.858;8.768;2022-08-19T01:10:16;15.70;;;10.38;;
6505;SDS011;3286;49.858;8.768;2022-08-19T01:12:47;16.73;;;11.88;;
6505;SDS011;3286;49.858;8.768;2022-08-19T01:15:18;15.63;;;11.18;;
6505;SDS011;3286;49.858;8.768;2022-08-19T01:17:49;14.25;;;11.05;;
6505;SDS011;3286;49.858;8.768;2022-08-19T01:20:19;16.80;;;11.63;;
6505;SDS011;3286;49.858;8.768;2022-08-19T01:22:49;14.43;;;11.43;;
6505;SDS011;3286;49.858;8.768;2022-08-19T01:25:24;14.88;;;10.90;;
6505;SDS011;3286;49.858;8.768;2022-08-19T01:27:54;15.15;;;11.68;;
6505;SDS011;3286;49.858;8.768;2022-08-19T01:30:33;12.57;;;10.48;;
6505;SDS011;3286;49.858;8.768;2022-08-19T01:33:02;13.10;;;11.40;;
6505;SDS011;3286;49.858;8.768;2022-08-19T01:35:30;14.82;;;11.75;;
6505;SDS011;3286;49.858;8.768;2022-08-19T01:38:00;14.43;;;11.57;;
6505;SDS011;3286;49.858;8.768;2022-08-19T01:40:32;16.42;;;11.45;;
6505;SDS011;3286;49.858;8.768;2022-08-19T01:43:01;17.30;;;11.45;;
6505;SDS011;3286;49.858;8.768;2022-08-19T01:45:29;14.43;;;11.23;;
6505;SDS011;3286;49.858;8.768;2022-08-19T01:47:58;17.38;;;11.18;;
6505;SDS011;3286;49.858;8.768;2022-08-19T01:50:26;13.88;;;11.18;;
6505;SDS011;3286;49.858;8.768;2022-08-19T01:52:53;14.52;;;11.10;;
6505;SDS011;3286;49.858;8.768;2022-08-19T01:55:21;13.70;;;11.02;;
6505;SDS011;3286;49.858;8.768;2022-08-19T01:57:50;15.55;;;10.98;;
6505;SDS011;3286;49.858;8.768;2022-08-19T02:00:21;14.07;;;10.65;;
6505;SDS011;3286;49.858;8.768;2022-08-19T02:02:50;13.18;;;10.38;;
6505;SDS011;3286;49.858;8.768;2022-08-19T02:05:16;12.10;;;9.82;;
6505;SDS011;3286;49.858;8.768;2022-08-19T02:07:46;14.30;;;11.20;;
6505;SDS011;3286;49.858;8.768;2022-08-19T02:10:14;15.85;;;10.57;;
6505;SDS011;3286;49.858;8.768;2022-08-19T02:12:44;13.68;;;10.50;;
6505;SDS011;3286;49.858;8.768;2022-08-19T02:15:11;13.70;;;10.32;;
6505;SDS011;3286;49.858;8.768;2022-08-19T02:17:39;13.00;;;11.13;;
6505;SDS011;3286;49.858;8.768;2022-08-19T02:20:07;15.40;;;11.23;;
6505;SDS011;3286;49.858;8.768;2022-08-19T02:22:34;13.25;;;10.48;;
6505;SDS011;3286;49.858;8.768;2022-08-19T02:25:01;14.10;;;10.50;;
6505;SDS011;3286;49.858;8.768;2022-08-19T02:27:29;13.27;;;10.70;;
6505;SDS011;3286;49.858;8.768;2022-08-19T02:29:57;16.42;;;11.10;;
6505;SDS011;3286;49.858;8.768;2022-08-19T02:32:24;13.93;;;10.35;;
6505;SDS011;3286;49.858;8.768;2022-08-19T02:34:50;14.02;;;10.60;;
6505;SDS011;3286;49.858;8.768;2022-08-19T02:37:17;14.18;;;10.43;;
6505;SDS011;3286;49.858;8.768;2022-08-19T02:39:58;14.45;;;10.75;;
6505;SDS011;3286;49.858;8.768;2022-08-19T02:42:25;14.50;;;10.93;;
6505;SDS011;3286;49.858;8.768;2022-08-19T02:44:51;14.25;;;9.40;;
6505;SDS011;3286;49.858;8.768;2022-08-19T02:47:21;13.77;;;9.82;;
6505;SDS011;3286;49.858;8.768;2022-08-19T02:49:48;13.13;;;9.30;;
6505;SDS011;3286;49.858;8.768;2022-08-19T02:52:15;13.48;;;9.68;;
6505;SDS011;3286;49.858;8.768;2022-08-19T02:54:41;13.18;;;9.82;;
6505;SDS011;3286;49.858;8.768;2022-08-19T02:57:08;12.07;;;9.55;;
6505;SDS011;3286;49.858;8.768;2022-08-19T02:59:35;11.25;;;9.43;;
6505;SDS011;3286;49.858;8.768;2022-08-19T03:02:02;11.07;;;8.93;;
6505;SDS011;3286;49.858;8.768;2022-08-19T03:04:30;10.80;;;9.18;;
6505;SDS011;3286;49.858;8.768;2022-08-19T03:06:57;12.82;;;9.63;;
6505;SDS011;3286;49.858;8.768;2022-08-19T03:09:24;14.40;;;10.80;;
6505;SDS011;3286;49.858;8.768;2022-08-19T03:11:50;13.20;;;11.02;;
6505;SDS011;3286;49.858;8.768;2022-08-19T03:14:17;13.40;;;10.82;;
6505;SDS011;3286;49.858;8.768;2022-08-19T03:16:45;15.30;;;10.82;;
6505;SDS011;3286;49.858;8.768;2022-08-19T03:19:13;13.52;;;11.00;;
6505;SDS011;3286;49.858;8.768;2022-08-19T03:21:43;13.70;;;10.50;;
6505;SDS011;3286;49.858;8.768;2022-08-19T03:24:10;13.52;;;10.52;;
6505;SDS011;3286;49.858;8.768;2022-08-19T03:26:39;11.98;;;9.68;;
6505;SDS011;3286;49.858;8.768;2022-08-19T03:29:06;14.70;;;10.73;;
6505;SDS011;3286;49.858;8.768;2022-08-19T03:31:33;14.05;;;10.82;;
6505;SDS011;3286;49.858;8.768;2022-08-19T03:34:00;14.45;;;10.80;;
6505;SDS011;3286;49.858;8.768;2022-08-19T03:36:27;13.35;;;9.63;;
6505;SDS011;3286;49.858;8.768;2022-08-19T03:38:56;13.43;;;9.90;;
6505;SDS011;3286;49.858;8.768;2022-08-19T03:41:25;10.82;;;9.05;;
6505;SDS011;3286;49.858;8.768;2022-08-19T03:43:55;14.48;;;10.52;;
6505;SDS011;3286;49.858;8.768;2022-08-19T03:46:23;12.07;;;9.90;;
6505;SDS011;3286;49.858;8.768;2022-08-19T03:48:52;12.27;;;9.80;;
6505;SDS011;3286;49.858;8.768;2022-08-19T03:51:20;13.52;;;9.85;;
6505;SDS011;3286;49.858;8.768;2022-08-19T03:53:49;13.27;;;10.68;;
6505;SDS011;3286;49.858;8.768;2022-08-19T03:56:18;13.05;;;9.93;;
6505;SDS011;3286;49.858;8.768;2022-08-19T03:58:45;12.88;;;10.15;;
6505;SDS011;3286;49.858;8.768;2022-08-19T04:01:13;13.05;;;9.50;;
6505;SDS011;3286;49.858;8.768;2022-08-19T04:03:45;11.98;;;9.82;;
6505;SDS011;3286;49.858;8.768;2022-08-19T04:06:13;12.52;;;10.02;;
6505;SDS011;3286;49.858;8.768;2022-08-19T04:08:43;16.02;;;10.68;;
6505;SDS011;3286;49.858;8.768;2022-08-19T04:11:11;13.00;;;9.90;;
6505;SDS011;3286;49.858;8.768;2022-08-19T04:13:41;15.50;;;10.55;;
6505;SDS011;3286;49.858;8.768;2022-08-19T04:16:08;13.13;;;10.43;;
6505;SDS011;3286;49.858;8.768;2022-08-19T04:18:35;11.90;;;10.38;;
6505;SDS011;3286;49.858;8.768;2022-08-19T04:21:04;13.50;;;10.60;;
6505;SDS011;3286;49.858;8.768;2022-08-19T04:23:31;12.27;;;9.55;;
6505;SDS011;3286;49.858;8.768;2022-08-19T04:25:58;12.82;;;9.80;;
6505;SDS011;3286;49.858;8.768;2022-08-19T04:28:25;12.55;;;10.48;;
6505;SDS011;3286;49.858;8.768;2022-08-19T04:30:53;14.63;;;9.80;;
6505;SDS011;3286;49.858;8.768;2022-08-19T04:33:21;13.32;;;9.82;;
6505;SDS011;3286;49.858;8.768;2022-08-19T04:35:50;15.93;;;10.98;;
6505;SDS011;3286;49.858;8.768;2022-08-19T04:38:19;12.43;;;9.70;;
6505;SDS011;3286;49.858;8.768;2022-08-19T04:40:49;13.55;;;9.85;;
6505;SDS011;3286;49.858;8.768;2022-08-19T04:43:35;15.10;;;9.35;;
6505;SDS011;3286;49.858;8.768;2022-08-19T04:46:07;11.93;;;9.20;;
6505;SDS011;3286;49.858;8.768;2022-08-19T04:48:35;12.98;;;9.23;;
6505;SDS011;3286;49.858;8.768;2022-08-19T04:51:05;12.23;;;9.32;;
6505;SDS011;3286;49.858;8.768;2022-08-19T04:53:34;11.85;;;9.93;;
6505;SDS011;3286;49.858;8.768;2022-08-19T04:56:04;12.25;;;9.32;;
6505;SDS011;3286;49.858;8.768;2022-08-19T04:58:33;12.73;;;9.77;;
6505;SDS011;3286;49.858;8.768;2022-08-19T05:01:00;12.43;;;8.63;;
6505;SDS011;3286;49.858;8.768;2022-08-19T05:03:28;10.95;;;8.98;;
6505;SDS011;3286;49.858;8.768;2022-08-19T05:05:59;12.45;;;9.65;;
6505;SDS011;3286;49.858;8.768;2022-08-19T05:08:32;11.27;;;9.00;;
6505;SDS011;3286;49.858;8.768;2022-08-19T05:11:00;10.88;;;8.65;;
6505;SDS011;3286;49.858;8.768;2022-08-19T05:13:27;10.32;;;8.45;;
6505;SDS011;3286;49.858;8.768;2022-08-19T05:15:54;11.70;;;9.50;;
6505;SDS011;3286;49.858;8.768;2022-08-19T05:18:22;11.30;;;8.85;;
6505;SDS011;3286;49.858;8.768;2022-08-19T05:21:08;11.63;;;8.98;;
6505;SDS011;3286;49.858;8.768;2022-08-19T05:23:54;10.88;;;8.45;;
6505;SDS011;3286;49.858;8.768;2022-08-19T05:26:21;11.38;;;8.57;;
6505;SDS011;3286;49.858;8.768;2022-08-19T05:28:47;13.85;;;9.10;;
6505;SDS011;3286;49.858;8.768;2022-08-19T05:31:14;11.00;;;8.35;;
6505;SDS011;3286;49.858;8.768;2022-08-19T05:33:41;11.98;;;8.60;;
6505;SDS011;3286;49.858;8.768;2022-08-19T05:36:09;10.25;;;8.45;;
6505;SDS011;3286;49.858;8.768;2022-08-19T05:38:36;11.00;;;8.50;;
6505;SDS011;3286;49.858;8.768;2022-08-19T05:41:06;11.85;;;8.90;;
6505;SDS011;3286;49.858;8.768;2022-08-19T05:43:33;10.90;;;8.73;;
6505;SDS011;3286;49.858;8.768;2022-08-19T05:46:00;10.85;;;9.23;;
6505;SDS011;3286;49.858;8.768;2022-08-19T05:48:26;12.60;;;8.05;;
6505;SDS011;3286;49.858;8.768;2022-08-19T05:50:53;11.13;;;8.75;;
6505;SDS011;3286;49.858;8.768;2022-08-19T05:53:21;13.18;;;8.80;;
6505;SDS011;3286;49.858;8.768;2022-08-19T05:55:48;9.98;;;8.30;;
6505;SDS011;3286;49.858;8.768;2022-08-19T05:58:15;11.45;;;8.60;;
6505;SDS011;3286;49.858;8.768;2022-08-19T06:00:42;11.30;;;8.73;;
6505;SDS011;3286;49.858;8.768;2022-08-19T06:03:10;11.10;;;8.95;;
6505;SDS011;3286;49.858;8.768;2022-08-19T06:05:36;9.75;;;8.65;;
6505;SDS011;3286;49.858;8.768;2022-08-19T06:08:03;11.73;;;7.80;;
6505;SDS011;3286;49.858;8.768;2022-08-19T06:10:33;11.45;;;8.55;;
6505;SDS011;3286;49.858;8.768;2022-08-19T06:13:01;10.75;;;7.93;;
6505;SDS011;3286;49.858;8.768;2022-08-19T06:15:30;11.40;;;7.60;;
6505;SDS011;3286;49.858;8.768;2022-08-19T06:17:57;9.93;;;8.25;;
6505;SDS011;3286;49.858;8.768;2022-08-19T06:20:24;10.45;;;7.82;;
6505;SDS011;3286;49.858;8.768;2022-08-19T06:22:51;11.85;;;8.05;;
6505;SDS011;3286;49.858;8.768;2022-08-19T06:25:18;12.90;;;8.48;;
6505;SDS011;3286;49.858;8.768;2022-08-19T06:27:47;11.98;;;8.13;;
6505;SDS011;3286;49.858;8.768;2022-08-19T06:30:13;13.90;;;8.50;;
6505;SDS011;3286;49.858;8.768;2022-08-19T06:32:41;10.35;;;7.78;;
6505;SDS011;3286;49.858;8.768;2022-08-19T06:35:07;9.45;;;7.45;;
6505;SDS011;3286;49.858;8.768;2022-08-19T06:37:34;11.95;;;7.97;;
6505;SDS011;3286;49.858;8.768;2022-08-19T06:40:02;10.00;;;7.70;;
6505;SDS011;3286;49.858;8.768;2022-08-19T06:42:29;9.15;;;8.00;;
6505;SDS011;3286;49.858;8.768;2022-08-19T06:44:57;8.98;;;7.22;;
6505;SDS011;3286;49.858;8.768;2022-08-19T06:47:24;14.43;;;7.45;;
6505;SDS011;3286;49.858;8.768;2022-08-19T06:49:52;9.88;;;7.65;;
6505;SDS011;3286;49.858;8.768;2022-08-19T06:52:20;8.35;;;7.25;;
6505;SDS011;3286;49.858;8.768;2022-08-19T06:54:48;8.20;;;6.85;;
6505;SDS011;3286;49.858;8.768;2022-08-19T06:57:15;9.88;;;7.22;;
6505;SDS011;3286;49.858;8.768;2022-08-19T06:59:42;11.75;;;8.00;;
6505;SDS011;3286;49.858;8.768;2022-08-19T07:02:10;8.77;;;6.88;;
6505;SDS011;3286;49.858;8.768;2022-08-19T07:04:36;8.50;;;7.10;;
6505;SDS011;3286;49.858;8.768;2022-08-19T07:07:05;11.40;;;7.20;;
6505;SDS011;3286;49.858;8.768;2022-08-19T07:09:34;9.00;;;7.68;;
6505;SDS011;3286;49.858;8.768;2022-08-19T07:12:03;12.00;;;7.60;;
6505;SDS011;3286;49.858;8.768;2022-08-19T07:14:32;10.32;;;7.63;;
6505;SDS011;3286;49.858;8.768;2022-08-19T07:17:02;10.50;;;7.55;;
6505;SDS011;3286;49.858;8.768;2022-08-19T07:19:31;10.18;;;7.22;;
6505;SDS011;3286;49.858;8.768;2022-08-19T07:22:00;8.55;;;7.45;;
6505;SDS011;3286;49.858;8.768;2022-08-19T07:24:28;10.15;;;7.30;;
6505;SDS011;3286;49.858;8.768;2022-08-19T07:26:56;9.70;;;7.20;;
6505;SDS011;3286;49.858;8.768;2022-08-19T07:29:27;10.48;;;8.20;;
6505;SDS011;3286;49.858;8.768;2022-08-19T07:31:56;10.90;;;7.43;;
6505;SDS011;3286;49.858;8.768;2022-08-19T07:34:23;10.60;;;7.45;;
6505;SDS011;3286;49.858;8.768;2022-08-19T07:36:53;10.60;;;7.72;;
6505;SDS011;3286;49.858;8.768;2022-08-19T07:39:21;10.65;;;6.97;;
6505;SDS011;3286;49.858;8.768;2022-08-19T07:41:49;10.55;;;8.15;;
6505;SDS011;3286;49.858;8.768;2022-08-19T07:44:16;11.25;;;7.78;;
6505;SDS011;3286;49.858;8.768;2022-08-19T07:46:45;10.48;;;7.28;;
6505;SDS011;3286;49.858;8.768;2022-08-19T07:49:14;11.25;;;7.70;;
6505;SDS011;3286;49.858;8.768;2022-08-19T07:51:44;10.48;;;7.88;;
6505;SDS011;3286;49.858;8.768;2022-08-19T07:54:13;7.80;;;6.97;;
6505;SDS011;3286;49.858;8.768;2022-08-19T07:56:40;8.70;;;7.22;;
6505;SDS011;3286;49.858;8.768;2022-08-19T07:59:07;10.52;;;7.45;;
6505;SDS011;3286;49.858;8.768;2022-08-19T08:01:34;11.10;;;7.32;;
6505;SDS011;3286;49.858;8.768;2022-08-19T08:04:01;11.13;;;7.53;;
6505;SDS011;3286;49.858;8.768;2022-08-19T08:06:46;13.93;;;6.55;;
6505;SDS011;3286;49.858;8.768;2022-08-19T08:09:32;7.70;;;5.35;;
6505;SDS011;3286;49.858;8.768;2022-08-19T08:12:04;7.05;;;5.10;;
6505;SDS011;3286;49.858;8.768;2022-08-19T08:14:33;7.95;;;5.93;;
6505;SDS011;3286;49.858;8.768;2022-08-19T08:17:03;10.88;;;5.65;;
6505;SDS011;3286;49.858;8.768;2022-08-19T08:19:31;8.50;;;5.40;;
6505;SDS011;3286;49.858;8.768;2022-08-19T08:21:59;5.10;;;4.60;;
6505;SDS011;3286;49.858;8.768;2022-08-19T08:24:27;6.85;;;4.07;;
6505;SDS011;3286;49.858;8.768;2022-08-19T08:26:58;6.47;;;4.50;;
6505;SDS011;3286;49.858;8.768;2022-08-19T08:29:26;5.90;;;4.28;;
6505;SDS011;3286;49.858;8.768;2022-08-19T08:31:54;7.93;;;4.10;;
6505;SDS011;3286;49.858;8.768;2022-08-19T08:34:22;10.18;;;4.45;;
6505;SDS011;3286;49.858;8.768;2022-08-19T08:36:49;4.85;;;3.53;;
6505;SDS011;3286;49.858;8.768;2022-08-19T08:39:18;6.50;;;3.72;;
6505;SDS011;3286;49.858;8.768;2022-08-19T08:41:47;5.43;;;3.50;;
6505;SDS011;3286;49.858;8.768;2022-08-19T08:44:21;2.92;;;2.67;;
6505;SDS011;3286;49.858;8.768;2022-08-19T08:46:53;6.15;;;2.92;;
6505;SDS011;3286;49.858;8.768;2022-08-19T08:49:29;3.80;;;3.08;;
6505;SDS011;3286;49.858;8.768;2022-08-19T08:52:02;3.47;;;3.17;;
6505;SDS011;3286;49.858;8.768;2022-08-19T08:54:32;4.93;;;3.75;;
6505;SDS011;3286;49.858;8.768;2022-08-19T08:57:04;5.78;;;3.20;;
6505;SDS011;3286;49.858;8.768;2022-08-19T08:59:39;4.60;;;3.35;;
6505;SDS011;3286;49.858;8.768;2022-08-19T09:02:07;3.63;;;3.15;;
6505;SDS011;3286;49.858;8.768;2022-08-19T09:04:34;6.38;;;3.55;;
6505;SDS011;3286;49.858;8.768;2022-08-19T09:07:08;4.63;;;3.58;;
6505;SDS011;3286;49.858;8.768;2022-08-19T09:09:47;5.53;;;3.30;;
6505;SDS011;3286;49.858;8.768;2022-08-19T09:12:18;4.45;;;3.13;;
6505;SDS011;3286;49.858;8.768;2022-08-19T09:14:53;6.50;;;3.78;;
6505;SDS011;3286;49.858;8.768;2022-08-19T09:17:25;4.07;;;3.30;;
6505;SDS011;3286;49.858;8.768;2022-08-19T09:19:57;8.85;;;3.58;;
6505;SDS011;3286;49.858;8.768;2022-08-19T09:22:29;4.57;;;3.38;;
6505;SDS011;3286;49.858;8.768;2022-08-19T09:24:56;6.35;;;3.45;;
6505;SDS011;3286;49.858;8.768;2022-08-19T09:27:23;3.83;;;3.47;;
6505;SDS011;3286;49.858;8.768;2022-08-19T09:29:53;11.10;;;3.63;;
6505;SDS011;3286;49.858;8.768;2022-08-19T09:32:20;10.18;;;4.20;;
6505;SDS011;3286;49.858;8.768;2022-08-19T09:34:47;6.18;;;3.45;;
6505;SDS011;3286;49.858;8.768;2022-08-19T09:37:14;5.57;;;3.28;;
6505;SDS011;3286;49.858;8.768;2022-08-19T09:39:41;4.88;;;3.88;;
6505;SDS011;3286;49.858;8.768;2022-08-19T09:42:08;6.28;;;3.92;;
6505;SDS011;3286;49.858;8.768;2022-08-19T09:44:38;4.07;;;3.67;;
6505;SDS011;3286;49.858;8.768;2022-08-19T09:47:07;4.38;;;3.60;;
6505;SDS011;3286;49.858;8.768;2022-08-19T09:49:35;5.82;;;3.30;;
6505;SDS011;3286;49.858;8.768;2022-08-19T09:52:04;4.28;;;3.50;;
6505;SDS011;3286;49.858;8.768;2022-08-19T09:54:33;5.00;;;3.00;;
6505;SDS011;3286;49.858;8.768;2022-08-19T09:56:59;4.00;;;3.25;;
6505;SDS011;3286;49.858;8.768;2022-08-19T09:59:26;5.10;;;3.13;;
6505;SDS011;3286;49.858;8.768;2022-08-19T10:01:54;6.18;;;3.15;;
6505;SDS011;3286;49.858;8.768;2022-08-19T10:04:22;6.20;;;3.13;;
6505;SDS011;3286;49.858;8.768;2022-08-19T10:07:09;4.55;;;3.40;;
6505;SDS011;3286;49.858;8.768;2022-08-19T10:09:36;3.70;;;3.28;;
6505;SDS011;3286;49.858;8.768;2022-08-19T10:12:03;3.65;;;3.35;;
6505;SDS011;3286;49.858;8.768;2022-08-19T10:14:31;5.15;;;3.50;;
6505;SDS011;3286;49.858;8.768;2022-08-19T10:16:57;3.30;;;3.00;;
6505;SDS011;3286;49.858;8.768;2022-08-19T10:19:26;4.60;;;3.22;;
6505;SDS011;3286;49.858;8.768;2022-08-19T10:21:55;3.58;;;3.28;;
6505;SDS011;3286;49.858;8.768;2022-08-19T10:24:21;3.20;;;2.90;;
6505;SDS011;3286;49.858;8.768;2022-08-19T10:26:50;3.75;;;3.00;;
6505;SDS011;3286;49.858;8.768;2022-08-19T10:29:16;5.35;;;3.40;;
6505;SDS011;3286;49.858;8.768;2022-08-19T10:31:43;3.22;;;2.88;;
6505;SDS011;3286;49.858;8.768;2022-08-19T10:34:11;3.50;;;3.20;;
6505;SDS011;3286;49.858;8.768;2022-08-19T10:36:39;4.10;;;3.63;;
6505;SDS011;3286;49.858;8.768;2022-08-19T10:39:07;6.75;;;4.00;;
6505;SDS011;3286;49.858;8.768;2022-08-19T10:41:37;5.22;;;3.97;;
6505;SDS011;3286;49.858;8.768;2022-08-19T10:44:05;5.07;;;3.60;;
6505;SDS011;3286;49.858;8.768;2022-08-19T10:46:35;4.10;;;3.40;;
6505;SDS011;3286;49.858;8.768;2022-08-19T10:49:05;4.82;;;3.20;;
6505;SDS011;3286;49.858;8.768;2022-08-19T10:51:32;4.07;;;3.20;;
6505;SDS011;3286;49.858;8.768;2022-08-19T10:54:18;4.18;;;3.60;;
6505;SDS011;3286;49.858;8.768;2022-08-19T10:56:46;4.03;;;3.72;;
6505;SDS011;3286;49.858;8.768;2022-08-19T10:59:18;5.70;;;3.95;;
6505;SDS011;3286;49.858;8.768;2022-08-19T11:01:47;9.93;;;4.50;;
6505;SDS011;3286;49.858;8.768;2022-08-19T11:04:14;4.75;;;4.20;;
6505;SDS011;3286;49.858;8.768;2022-08-19T11:06:42;4.05;;;3.65;;
6505;SDS011;3286;49.858;8.768;2022-08-19T11:09:10;4.07;;;3.65;;
6505;SDS011;3286;49.858;8.768;2022-08-19T11:11:39;4.22;;;3.83;;
6505;SDS011;3286;49.858;8.768;2022-08-19T11:14:06;8.85;;;3.58;;
6505;SDS011;3286;49.858;8.768;2022-08-19T11:16:38;4.78;;;3.95;;
6505;SDS011;3286;49.858;8.768;2022-08-19T11:19:09;4.15;;;3.47;;
6505;SDS011;3286;49.858;8.768;2022-08-19T11:21:38;4.10;;;3.67;;
6505;SDS011;3286;49.858;8.768;2022-08-19T11:24:08;4.90;;;4.30;;
6505;SDS011;3286;49.858;8.768;2022-08-19T11:26:42;9.32;;;4.63;;
6505;SDS011;3286;49.858;8.768;2022-08-19T11:29:10;5.70;;;4.20;;
6505;SDS011;3286;49.858;8.768;2022-08-19T11:31:40;6.05;;;4.60;;
6505;SDS011;3286;49.858;8.768;2022-08-19T11:34:10;6.75;;;5.20;;
6505;SDS011;3286;49.858;8.768;2022-08-19T11:36:38;5.35;;;4.85;;
6505;SDS011;3286;49.858;8.768;2022-08-19T11:39:07;9.15;;;5.20;;
6505;SDS011;3286;49.858;8.768;2022-08-19T11:41:35;7.28;;;4.90;;
6505;SDS011;3286;49.858;8.768;2022-08-19T11:44:04;6.05;;;4.57;;
6505;SDS011;3286;49.858;8.768;2022-08-19T11:46:31;4.55;;;4.15;;
6505;SDS011;3286;49.858;8.768;2022-08-19T11:48:58;8.38;;;5.15;;
6505;SDS011;3286;49.858;8.768;2022-08-19T11:51:28;5.07;;;4.57;;
6505;SDS011;3286;49.858;8.768;2022-08-19T11:53:56;5.43;;;4.68;;
6505;SDS011;3286;49.858;8.768;2022-08-19T11:56:24;6.88;;;4.95;;
6505;SDS011;3286;49.858;8.768;2022-08-19T11:58:52;5.63;;;4.72;;
6505;SDS011;3286;49.858;8.768;2022-08-19T12:01:21;6.28;;;4.97;;
6505;SDS011;3286;49.858;8.768;2022-08-19T12:03:50;5.45;;;4.72;;
6505;SDS011;3286;49.858;8.768;2022-08-19T12:06:19;5.20;;;4.30;;
6505;SDS011;3286;49.858;8.768;2022-08-19T12:08:53;5.60;;;4.80;;
6505;SDS011;3286;49.858;8.768;2022-08-19T12:11:28;5.72;;;5.13;;
6505;SDS011;3286;49.858;8.768;2022-08-19T12:13:54;5.55;;;5.05;;
6505;SDS011;3286;49.858;8.768;2022-08-19T12:16:24;5.43;;;4.93;;
6505;SDS011;3286;49.858;8.768;2022-08-19T12:18:53;6.88;;;5.15;;
6505;SDS011;3286;49.858;8.768;2022-08-19T12:21:21;5.72;;;5.22;;
6505;SDS011;3286;49.858;8.768;2022-08-19T12:23:54;6.70;;;5.18;;
6505;SDS011;3286;49.858;8.768;2022-08-19T12:26:22;6.50;;;5.65;;
6505;SDS011;3286;49.858;8.768;2022-08-19T12:28:50;12.73;;;5.95;;
6505;SDS011;3286;49.858;8.768;2022-08-19T12:31:18;9.25;;;5.30;;
6505;SDS011;3286;49.858;8.768;2022-08-19T12:33:46;6.55;;;5.82;;
6505;SDS011;3286;49.858;8.768;2022-08-19T12:36:14;9.13;;;7.20;;
6505;SDS011;3286;49.858;8.768;2022-08-19T12:38:42;7.38;;;6.65;;
6505;SDS011;3286;49.858;8.768;2022-08-19T12:41:10;6.53;;;5.93;;
6505;SDS011;3286;49.858;8.768;2022-08-19T12:43:38;7.63;;;6.82;;
6505;SDS011;3286;49.858;8.768;2022-08-19T12:46:05;7.22;;;6.53;;
6505;SDS011;3286;49.858;8.768;2022-08-19T12:48:33;7.28;;;6.57;;
6505;SDS011;3286;49.858;8.768;2022-08-19T12:51:05;7.18;;;6.47;;
6505;SDS011;3286;49.858;8.768;2022-08-19T12:53:33;7.80;;;6.93;;
6505;SDS011;3286;49.858;8.768;2022-08-19T12:56:00;7.88;;;7.03;;
6505;SDS011;3286;49.858;8.768;2022-08-19T12:58:28;7.53;;;6.82;;
6505;SDS011;3286;49.858;8.768;2022-08-19T13:00:55;8.52;;;7.13;;
6505;SDS011;3286;49.858;8.768;2022-08-19T13:03:22;12.55;;;6.80;;
6505;SDS011;3286;49.858;8.768;2022-08-19T13:05:54;7.57;;;6.85;;
6505;SDS011;3286;49.858;8.768;2022-08-19T13:08:22;7.68;;;6.85;;
6505;SDS011;3286;49.858;8.768;2022-08-19T13:10:49;8.20;;;6.80;;
6505;SDS011;3286;49.858;8.768;2022-08-19T13:13:16;10.35;;;6.60;;
6505;SDS011;3286;49.858;8.768;2022-08-19T13:15:43;7.32;;;6.63;;
6505;SDS011;3286;49.858;8.768;2022-08-19T13:18:10;6.97;;;6.35;;
6505;SDS011;3286;49.858;8.768;2022-08-19T13:20:38;9.55;;;6.82;;
6505;SDS011;3286;49.858;8.768;2022-08-19T13:23:06;7.63;;;6.80;;
6505;SDS011;3286;49.858;8.768;2022-08-19T13:25:34;6.97;;;6.28;;
6505;SDS011;3286;49.858;8.768;2022-08-19T13:28:02;7.55;;;6.47;;
6505;SDS011;3286;49.858;8.768;2022-08-19T13:30:29;9.50;;;6.28;;
6505;SDS011;3286;49.858;8.768;2022-08-19T13:33:13;9.27;;;6.50;;
6505;SDS011;3286;49.858;8.768;2022-08-19T13:35:41;6.97;;;6.13;;
6505;SDS011;3286;49.858;8.768;2022-08-19T13:38:09;6.55;;;5.95;;
6505;SDS011;3286;49.858;8.768;2022-08-19T13:40:37;7.28;;;6.57;;
6505;SDS011;3286;49.858;8.768;2022-08-19T13:43:05;6.95;;;6.18;;
6505;SDS011;3286;49.858;8.768;2022-08-19T13:45:32;6.93;;;6.22;;
6505;SDS011;3286;49.858;8.768;2022-08-19T13:48:00;10.80;;;6.22;;
6505;SDS011;3286;49.858;8.768;2022-08-19T13:50:31;8.93;;;5.95;;
6505;SDS011;3286;49.858;8.768;2022-08-19T13:52:59;8.70;;;5.55;;
6505;SDS011;3286;49.858;8.768;2022-08-19T13:55:26;7.38;;;5.50;;
6505;SDS011;3286;49.858;8.768;2022-08-19T13:57:55;6.90;;;5.65;;
6505;SDS011;3286;49.858;8.768;2022-08-19T14:00:24;6.13;;;5.53;;
6505;SDS011;3286;49.858;8.768;2022-08-19T14:02:52;6.18;;;5.57;;
6505;SDS011;3286;49.858;8.768;2022-08-19T14:05:22;6.70;;;6.10;;
6505;SDS011;3286;49.858;8.768;2022-08-19T14:07:50;7.97;;;5.32;;
6505;SDS011;3286;49.858;8.768;2022-08-19T14:10:17;5.88;;;5.28;;
6505;SDS011;3286;49.858;8.768;2022-08-19T14:12:45;6.03;;;5.00;;
6505;SDS011;3286;49.858;8.768;2022-08-19T14:15:14;5.07;;;4.57;;
6505;SDS011;3286;49.858;8.768;2022-08-19T14:17:42;5.82;;;4.45;;
6505;SDS011;3286;49.858;8.768;2022-08-19T14:20:12;8.43;;;4.07;;
6505;SDS011;3286;49.858;8.768;2022-08-19T14:22:40;2.90;;;2.63;;
6505;SDS011;3286;49.858;8.768;2022-08-19T14:25:09;6.55;;;3.13;;
6505;SDS011;3286;49.858;8.768;2022-08-19T14:27:38;3.10;;;2.88;;
6505;SDS011;3286;49.858;8.768;2022-08-19T14:30:06;4.28;;;3.00;;
6505;SDS011;3286;49.858;8.768;2022-08-19T14:32:36;3.72;;;3.20;;
6505;SDS011;3286;49.858;8.768;2022-08-19T14:35:03;3.75;;;3.30;;
6505;SDS011;3286;49.858;8.768;2022-08-19T14:37:33;5.70;;;3.25;;
6505;SDS011;3286;49.858;8.768;2022-08-19T14:40:00;3.40;;;3.05;;
6505;SDS011;3286;49.858;8.768;2022-08-19T14:42:26;3.85;;;2.90;;
6505;SDS011;3286;49.858;8.768;2022-08-19T14:44:53;2.50;;;2.30;;
6505;SDS011;3286;49.858;8.768;2022-08-19T14:47:23;3.00;;;2.70;;
6505;SDS011;3286;49.858;8.768;2022-08-19T14:49:51;3.20;;;2.63;;
6505;SDS011;3286;49.858;8.768;2022-08-19T14:52:18;2.90;;;2.40;;
6505;SDS011;3286;49.858;8.768;2022-08-19T14:54:45;6.95;;;2.70;;
6505;SDS011;3286;49.858;8.768;2022-08-19T14:57:12;2.67;;;2.33;;
6505;SDS011;3286;49.858;8.768;2022-08-19T14:59:40;3.58;;;2.40;;
6505;SDS011;3286;49.858;8.768;2022-08-19T15:02:07;3.00;;;2.70;;
6505;SDS011;3286;49.858;8.768;2022-08-19T15:04:33;4.95;;;2.78;;
6505;SDS011;3286;49.858;8.768;2022-08-19T15:07:02;2.60;;;2.40;;
6505;SDS011;3286;49.858;8.768;2022-08-19T15:09:29;2.85;;;2.55;;
6505;SDS011;3286;49.858;8.768;2022-08-19T15:11:56;2.95;;;2.67;;
6505;SDS011;3286;49.858;8.768;2022-08-19T15:14:24;2.92;;;2.65;;